Shikarpur Weather



Shikarpur's Current Weather

Temprature 23o haze

haze

Rain: 0 %

Min Temprature23o
Max Temprature23o
Humidity25
Wind Speed2.51 m/h
Sun Rise06:56:06
Sun Set18:21:55
Current Time: 23-Feb-2019 15:41:44
Lat/Lon: 27.96, 68.63




Shikarpur's Geo Location




Shikarpur's Weather Forecast

Time Overall Temp Min Temp Max Temp Humidity Wind Speed Rain
23-Feb-2019 (Sat)
17:00:00 few clouds 22.950 22.624 22.950 60 2.51 m/h 0 %
20:00:00 clear sky 18.230 17.984 18.230 69 1.77 m/h 0 %
23:00:00 clear sky 15.330 15.165 15.330 82 1.27 m/h 0 %
24-Feb-2019 (Sun)
02:00:00 clear sky 13.770 13.685 13.770 88 1.21 m/h 0 %
05:00:00 clear sky 12.442 12.442 12.442 88 1.21 m/h 0 %
08:00:00 clear sky 12.728 12.728 12.728 88 1.21 m/h 0 %
11:00:00 clear sky 20.674 20.674 20.674 87 2.01 m/h 0 %
14:00:00 clear sky 23.156 23.156 23.156 80 2.72 m/h 0 %
17:00:00 clear sky 22.796 22.796 22.796 60 1.85 m/h 0 %
20:00:00 few clouds 17.093 17.093 17.093 59 1.46 m/h 0 %
23:00:00 clear sky 13.936 13.936 13.936 62 1.31 m/h 0 %
25-Feb-2019 (Mon)
02:00:00 scattered clouds 12.480 12.480 12.480 71 1.67 m/h 0 %
05:00:00 overcast clouds 13.277 13.277 13.277 65 3.26 m/h 0 %
08:00:00 clear sky 13.520 13.520 13.520 69 2.27 m/h 0 %
11:00:00 clear sky 19.172 19.172 19.172 79 2.61 m/h 0 %
14:00:00 clear sky 22.448 22.448 22.448 73 2.22 m/h 0 %
17:00:00 broken clouds 22.287 22.287 22.287 55 1.61 m/h 0 %
20:00:00 few clouds 17.723 17.723 17.723 57 1.41 m/h 0 %
23:00:00 scattered clouds 15.167 15.167 15.167 72 1.71 m/h 0 %
26-Feb-2019 (Tue)
02:00:00 light rain 13.451 13.451 13.451 86 0.71 m/h 8 %
05:00:00 clear sky 11.597 11.597 11.597 93 1.06 m/h 0 %
08:00:00 clear sky 11.532 11.532 11.532 91 1.52 m/h 0 %
11:00:00 clear sky 18.892 18.892 18.892 84 1.47 m/h 0 %
14:00:00 clear sky 20.821 20.821 20.821 73 0.81 m/h 0 %
17:00:00 clear sky 20.939 20.939 20.939 52 1.96 m/h 0 %
20:00:00 clear sky 15.586 15.586 15.586 51 1.67 m/h 0 %
23:00:00 clear sky 12.973 12.973 12.973 61 2.22 m/h 0 %
27-Feb-2019 (Wed)
02:00:00 clear sky 10.806 10.806 10.806 68 1.06 m/h 0 %
05:00:00 clear sky 9.343 9.343 9.343 59 2.6 m/h 0 %
08:00:00 clear sky 9.665 9.665 9.665 62 1.17 m/h 0 %
11:00:00 clear sky 17.845 17.845 17.845 79 2.11 m/h 0 %
14:00:00 clear sky 21.361 21.361 21.361 69 2.05 m/h 0 %
17:00:00 clear sky 21.373 21.373 21.373 50 3.31 m/h 0 %
20:00:00 clear sky 16.142 16.142 16.142 52 2.52 m/h 0 %
23:00:00 broken clouds 14.066 14.066 14.066 60 1.32 m/h 0 %
28-Feb-2019 (Thu)
02:00:00 broken clouds 13.016 13.016 13.016 63 3.31 m/h 0 %
05:00:00 broken clouds 12.563 12.563 12.563 65 1.76 m/h 0 %
08:00:00 few clouds 13.190 13.190 13.190 68 2.56 m/h 0 %
11:00:00 broken clouds 16.697 16.697 16.697 75 3.01 m/h 0 %
14:00:00 broken clouds 19.529 19.529 19.529 76 2.42 m/h 0 %

Famous Cities (60)